Time;durP1;ratioP1;P1;durP2;ratioP2;P2;SDS_P1;SDS_P2;PMS_P1;PMS_P2;Temp;Humidity;BMP_temperature;BMP_pressure;BME280_temperature;BME280_humidity;BME280_pressure;Samples;Min_cycle;Max_cycle;Signal;HPM_P1;HPM_P2
2022/01/02 00:01:45;;;;;;;8.20;4.20;;;;;;;3.45;80.81;98528.57;25008;1318;3054762;-68
2022/01/02 00:04:19;;;;;;;7.00;3.30;;;;;;;3.75;80.50;98522.15;25096;1315;3030082;-70
2022/01/02 00:06:53;;;;;;;5.90;3.50;;;;;;;4.24;78.80;98521.69;25113;1313;3051490;-70
2022/01/02 00:09:31;;;;;;;7.00;4.60;;;;;;;4.13;78.36;98527.59;25132;1315;3051481;-66
2022/01/02 00:12:22;;;;;;;8.10;5.10;;;;;;;3.71;79.49;98524.79;25135;1313;3053817;-68
2022/01/02 00:14:52;;;;;;;5.80;3.90;;;;;;;3.57;80.19;98533.41;25100;1315;3068888;-72
2022/01/02 00:17:23;;;;;;;6.00;3.10;;;;;;;3.37;81.22;98543.52;25101;1315;3026842;-64
2022/01/02 00:19:53;;;;;;;6.40;2.80;;;;;;;3.90;79.69;98533.91;25114;1313;3026351;-67
2022/01/02 00:22:30;;;;;;;11.20;4.50;;;;;;;4.14;78.43;98531.38;25127;1313;3026867;-66
2022/01/02 00:24:59;;;;;;;11.60;6.30;;;;;;;4.05;78.46;98533.75;25121;1315;3058992;-64
2022/01/02 00:27:28;;;;;;;5.80;3.60;;;;;;;3.86;78.71;98536.37;25112;1313;3028471;-66
2022/01/02 00:29:58;;;;;;;5.80;3.10;;;;;;;3.58;79.84;98541.01;25126;1313;3055161;-68
2022/01/02 00:32:27;;;;;;;4.40;2.40;;;;;;;3.42;80.49;98543.11;25076;1315;3026065;-69
2022/01/02 00:34:56;;;;;;;4.30;2.40;;;;;;;3.40;80.74;98553.39;25071;1314;3027247;-67
2022/01/02 00:37:25;;;;;;;5.00;2.50;;;;;;;4.01;79.16;98560.06;25102;1313;3053757;-67
2022/01/02 00:39:54;;;;;;;4.90;1.90;;;;;;;3.97;78.52;98553.00;25104;1313;3027461;-67
2022/01/02 00:42:40;;;;;;;3.00;1.70;;;;;;;3.79;78.69;98554.02;25136;1315;3054074;-72
2022/01/02 00:45:27;;;;;;;3.30;1.60;;;;;;;3.53;79.60;98558.87;25116;1313;3055688;-65
2022/01/02 00:48:09;;;;;;;1.70;1.30;;;;;;;3.38;79.73;98560.41;25115;1315;3056391;-66
2022/01/02 00:50:41;;;;;;;2.40;1.30;;;;;;;3.33;80.45;98569.13;25082;1315;3052584;-69
2022/01/02 00:53:10;;;;;;;2.30;1.00;;;;;;;3.79;79.34;98571.52;25089;1315;3029154;-67
2022/01/02 00:55:39;;;;;;;1.40;0.90;;;;;;;3.89;78.20;98576.10;25100;1315;3026751;-68
2022/01/02 00:58:13;;;;;;;1.90;1.00;;;;;;;3.60;79.08;98574.84;25085;1315;3026491;-66
2022/01/02 01:00:48;;;;;;;2.10;1.20;;;;;;;3.37;79.75;98589.21;25125;1313;3054685;-66
2022/01/02 01:03:23;;;;;;;3.80;1.80;;;;;;;3.20;79.99;98587.35;25115;1315;3052290;-66
2022/01/02 01:05:53;;;;;;;3.40;2.40;;;;;;;3.37;79.85;98580.03;25062;1315;3068347;-68
2022/01/02 01:08:23;;;;;;;7.00;3.20;;;;;;;3.65;78.50;98583.95;25089;1313;3026755;-64
2022/01/02 01:10:52;;;;;;;6.90;3.20;;;;;;;3.73;77.94;98581.34;25088;1315;3026962;-69
2022/01/02 01:13:21;;;;;;;8.90;3.50;;;;;;;3.62;77.97;98577.48;25081;1315;3029213;-65
2022/01/02 01:15:51;;;;;;;5.60;2.10;;;;;;;3.38;78.51;98587.60;25091;1315;3051333;-66
2022/01/02 01:18:21;;;;;;;3.20;2.00;;;;;;;3.12;79.18;98584.25;25101;1315;3026178;-63
2022/01/02 01:20:53;;;;;;;3.40;1.40;;;;;;;3.09;80.02;98576.42;25102;1315;3069003;-65
2022/01/02 01:23:22;;;;;;;6.70;2.20;;;;;;;3.59;78.62;98578.02;25109;1313;3026238;-68
2022/01/02 01:25:51;;;;;;;7.70;3.50;;;;;;;3.63;77.67;98591.30;25109;1315;3026663;-63
2022/01/02 01:28:20;;;;;;;3.30;2.00;;;;;;;3.43;78.08;98580.81;25125;1315;3026561;-67
2022/01/02 01:30:49;;;;;;;1.80;1.30;;;;;;;3.27;78.50;98579.44;25097;1313;3051135;-66
2022/01/02 01:33:20;;;;;;;5.20;2.90;;;;;;;3.14;78.99;98574.48;25101;1313;3026597;-69
2022/01/02 01:35:49;;;;;;;16.50;6.10;;;;;;;2.89;79.60;98590.10;25099;1315;3026958;-68
2022/01/02 01:38:18;;;;;;;19.70;8.00;;;;;;;3.14;79.69;98584.15;25083;1315;3047835;-66
2022/01/02 01:40:57;;;;;;;18.00;7.40;;;;;;;3.45;78.41;98575.70;25121;1315;3026542;-67
2022/01/02 01:43:37;;;;;;;23.40;9.50;;;;;;;3.22;78.50;98585.88;25104;1315;3067464;-67
2022/01/02 01:46:06;;;;;;;18.30;8.80;;;;;;;3.10;78.92;98596.45;25086;1315;3048824;-70
2022/01/02 01:48:36;;;;;;;24.60;9.60;;;;;;;2.83;79.70;98611.27;25101;1315;3026755;-65
2022/01/02 01:51:05;;;;;;;17.80;7.20;;;;;;;2.87;79.92;98608.36;25109;1313;3026142;-63
2022/01/02 01:53:34;;;;;;;10.30;4.90;;;;;;;3.20;78.97;98610.73;25103;1313;3026563;-64
2022/01/02 01:56:03;;;;;;;11.00;4.80;;;;;;;3.32;78.10;98589.95;25083;1316;3051511;-67
2022/01/02 01:58:33;;;;;;;8.60;4.20;;;;;;;3.37;77.55;98599.96;25079;1315;3026900;-65
2022/01/02 02:01:02;;;;;;;12.20;5.50;;;;;;;3.08;78.26;98606.60;25099;1314;3026518;-64
2022/01/02 02:03:37;;;;;;;12.10;5.00;;;;;;;2.76;79.34;98615.38;25140;1314;3054726;-65
2022/01/02 02:06:07;;;;;;;10.10;4.50;;;;;;;2.70;79.80;98632.92;25087;1313;3026711;-67
2022/01/02 02:08:37;;;;;;;15.60;6.10;;;;;;;2.89;79.66;98624.17;25112;1315;3026602;-69
2022/01/02 02:11:07;;;;;;;12.70;5.20;;;;;;;3.23;78.28;98602.80;25081;1315;3026688;-62
2022/01/02 02:13:37;;;;;;;13.50;5.30;;;;;;;3.27;77.74;98619.24;25120;1315;3027465;-66
2022/01/02 02:16:07;;;;;;;16.30;4.80;;;;;;;2.99;78.29;98643.30;24887;1315;3300363;-67
2022/01/02 02:18:36;;;;;;;12.90;3.80;;;;;;;2.59;79.69;98616.42;25067;1315;3026443;-73
2022/01/02 02:21:06;;;;;;;7.90;3.60;;;;;;;2.41;80.58;98637.73;25101;1315;3056502;-66
2022/01/02 02:23:35;;;;;;;9.50;3.00;;;;;;;2.71;80.20;98632.86;25103;1313;3026421;-71
2022/01/02 02:26:04;;;;;;;6.90;3.00;;;;;;;2.99;78.60;98625.66;25102;1313;3049167;-67
2022/01/02 02:28:35;;;;;;;5.20;1.50;;;;;;;3.06;78.22;98618.25;25073;1315;3026413;-67
2022/01/02 02:31:04;;;;;;;6.30;1.60;;;;;;;2.65;79.16;98632.62;25113;1315;3026693;-68
2022/01/02 02:33:33;;;;;;;6.80;1.60;;;;;;;2.47;79.74;98641.83;25105;1314;3049006;-68
2022/01/02 02:36:03;;;;;;;2.40;0.90;;;;;;;2.37;80.18;98651.40;25106;1313;3026355;-70
2022/01/02 02:38:32;;;;;;;1.00;0.70;;;;;;;2.79;79.07;98637.21;25103;1313;3058770;-69
2022/01/02 02:41:03;;;;;;;1.20;0.80;;;;;;;2.90;78.19;98644.36;25104;1313;3026848;-68
2022/01/02 02:43:47;;;;;;;0.80;0.50;;;;;;;2.86;78.26;98650.59;25093;1315;3027404;-67
2022/01/02 02:49:16;;;;;;;0.70;0.50;;;;;;;2.40;79.42;98651.77;25118;1313;3048626;-62
2022/01/02 02:54:42;;;;;;;0.30;0.30;;;;;;;2.71;78.84;98662.96;25095;1315;3052838;-67
2022/01/02 02:57:13;;;;;;;1.20;0.70;;;;;;;2.87;77.52;98658.30;25123;1313;3028590;-68
2022/01/02 02:59:42;;;;;;;0.80;0.60;;;;;;;2.70;77.57;98662.48;25139;1313;3026378;-67
2022/01/02 03:02:12;;;;;;;0.80;0.50;;;;;;;2.33;78.74;98662.95;25123;1315;3026527;-63
2022/01/02 03:04:45;;;;;;;0.70;0.60;;;;;;;2.22;79.09;98668.39;25093;1313;3026030;-67
2022/01/02 03:07:14;;;;;;;1.90;0.90;;;;;;;2.23;79.34;98679.75;25084;1313;3026887;-69
2022/01/02 03:09:48;;;;;;;2.30;0.90;;;;;;;2.73;78.00;98684.86;25087;1315;3026601;-72
2022/01/02 03:12:21;;;;;;;2.20;0.90;;;;;;;2.81;77.21;98683.16;25112;1315;3051501;-67
2022/01/02 03:14:52;;;;;;;0.90;0.70;;;;;;;2.53;77.90;98686.86;25094;1313;3056643;-65
2022/01/02 03:17:21;;;;;;;1.30;0.50;;;;;;;2.26;78.71;98692.95;25083;1313;3026309;-65
2022/01/02 03:19:50;;;;;;;1.80;0.80;;;;;;;2.15;79.35;98706.13;25140;1313;3053725;-66
2022/01/02 03:22:24;;;;;;;0.70;0.40;;;;;;;2.14;79.36;98709.46;25088;1315;3059529;-68
2022/01/02 03:24:54;;;;;;;0.60;0.50;;;;;;;2.47;78.18;98705.93;25124;1315;3026553;-68
2022/01/02 03:27:25;;;;;;;0.60;0.40;;;;;;;2.53;77.28;98710.54;25123;1313;3027663;-67
2022/01/02 03:30:09;;;;;;;1.20;0.80;;;;;;;2.38;77.43;98733.60;25078;1315;3058662;-65
2022/01/02 03:32:39;;;;;;;1.00;0.50;;;;;;;2.11;77.90;98737.23;25085;1313;3026554;-65
2022/01/02 03:35:09;;;;;;;0.40;0.40;;;;;;;1.97;78.35;98747.06;25124;1313;3026819;-65
2022/01/02 03:37:38;;;;;;;0.90;0.70;;;;;;;1.93;78.42;98742.23;25117;1315;3027120;-62
2022/01/02 03:40:09;;;;;;;0.70;0.40;;;;;;;2.51;76.66;98756.60;25098;1315;3027651;-67
2022/01/02 03:42:40;;;;;;;1.00;0.60;;;;;;;2.52;75.45;98770.07;25165;1315;3028356;-67
2022/01/02 03:45:10;;;;;;;0.50;0.40;;;;;;;2.28;75.39;98753.69;25099;1314;3026846;-68
2022/01/02 03:47:44;;;;;;;1.10;0.70;;;;;;;2.14;76.06;98759.40;25111;1315;3049961;-66
2022/01/02 03:50:13;;;;;;;1.00;0.70;;;;;;;1.94;76.22;98760.83;25129;1315;3026393;-68
2022/01/02 03:52:44;;;;;;;1.10;0.90;;;;;;;1.79;76.83;98775.71;25114;1313;3052961;-65
2022/01/02 03:55:13;;;;;;;0.90;0.60;;;;;;;1.86;77.28;98778.74;25091;1313;3026961;-66
2022/01/02 03:57:42;;;;;;;2.10;0.90;;;;;;;2.44;75.21;98781.63;25109;1315;3026680;-64
2022/01/02 04:00:13;;;;;;;1.60;0.80;;;;;;;2.59;74.16;98789.16;25092;1315;3026438;-66
2022/01/02 04:02:45;;;;;;;0.80;0.60;;;;;;;2.38;74.38;98798.08;25081;1315;3052179;-67
2022/01/02 04:05:15;;;;;;;0.70;0.60;;;;;;;2.13;75.43;98801.23;25106;1313;3026605;-70
2022/01/02 04:07:46;;;;;;;1.30;0.80;;;;;;;1.90;76.05;98805.02;25121;1313;3026684;-65
2022/01/02 04:10:16;;;;;;;0.90;0.80;;;;;;;1.74;76.54;98807.84;25089;1313;3026478;-64
2022/01/02 04:12:45;;;;;;;1.10;0.60;;;;;;;1.54;77.21;98806.29;25111;1315;3026738;-65
2022/01/02 04:15:20;;;;;;;0.70;0.50;;;;;;;2.08;76.17;98807.32;25135;1315;3054286;-66
2022/01/02 04:17:50;;;;;;;0.50;0.50;;;;;;;2.13;74.72;98813.33;25118;1315;3026826;-65
2022/01/02 04:20:20;;;;;;;0.80;0.60;;;;;;;1.98;75.01;98808.70;25040;1313;3027019;-63
2022/01/02 04:22:49;;;;;;;1.00;0.50;;;;;;;1.75;75.67;98823.17;25107;1315;3026999;-67
2022/01/02 04:25:18;;;;;;;2.40;0.70;;;;;;;1.70;75.92;98817.29;25135;1315;3026360;-68
2022/01/02 04:27:48;;;;;;;1.00;0.60;;;;;;;1.53;76.09;98821.34;25073;1315;3052243;-65
2022/01/02 04:30:18;;;;;;;0.70;0.50;;;;;;;1.33;76.52;98830.98;25095;1315;3026659;-68
2022/01/02 04:32:48;;;;;;;0.40;0.40;;;;;;;1.64;76.04;98837.16;25122;1313;3027335;-68
2022/01/02 04:35:18;;;;;;;0.90;0.60;;;;;;;1.97;74.14;98836.91;25115;1315;3052351;-64
2022/01/02 04:37:47;;;;;;;0.50;0.30;;;;;;;2.06;73.69;98834.34;25075;1313;3026580;-64
2022/01/02 04:40:17;;;;;;;1.00;0.60;;;;;;;1.77;74.11;98856.61;25091;1313;3058554;-68
2022/01/02 04:42:46;;;;;;;0.90;0.40;;;;;;;1.66;74.22;98851.27;25102;1315;3026590;-66
2022/01/02 04:45:15;;;;;;;1.70;0.60;;;;;;;1.50;74.80;98861.46;25073;1313;3049631;-66
2022/01/02 04:47:44;;;;;;;1.10;0.80;;;;;;;1.34;75.46;98871.32;25112;1313;3027169;-66
2022/01/02 04:50:13;;;;;;;1.10;0.60;;;;;;;1.26;75.91;98869.83;25099;1315;3054492;-65
2022/01/02 04:52:42;;;;;;;0.80;0.50;;;;;;;1.77;74.84;98868.16;25102;1313;3026539;-67
2022/01/02 04:55:12;;;;;;;0.80;0.60;;;;;;;1.92;73.83;98876.11;25121;1313;3047732;-69
2022/01/02 04:57:41;;;;;;;0.80;0.60;;;;;;;1.85;74.21;98890.02;25101;1313;3027481;-68
2022/01/02 05:00:11;;;;;;;1.30;0.70;;;;;;;1.71;74.65;98889.25;25110;1313;3026656;-64
2022/01/02 05:02:40;;;;;;;0.70;0.40;;;;;;;1.58;75.28;98896.41;25085;1315;3028096;-68
2022/01/02 05:05:10;;;;;;;0.40;0.40;;;;;;;1.22;76.39;98929.33;25091;1315;3026495;-66
2022/01/02 05:07:40;;;;;;;0.90;0.50;;;;;;;1.15;77.05;98926.45;25111;1313;3026782;-63
2022/01/02 05:10:14;;;;;;;0.80;0.50;;;;;;;1.49;76.24;98912.23;25158;1315;3059032;-67
2022/01/02 05:12:43;;;;;;;0.60;0.50;;;;;;;1.52;75.70;98909.20;25064;1315;3026866;-68
2022/01/02 05:15:13;;;;;;;0.40;0.30;;;;;;;1.39;75.99;98924.66;25105;1315;3026739;-67
2022/01/02 05:17:58;;;;;;;0.70;0.60;;;;;;;1.10;76.62;98948.50;25089;1314;3054161;-66
2022/01/02 05:20:29;;;;;;;0.70;0.60;;;;;;;0.95;77.38;98951.35;25108;1315;3027184;-68
2022/01/02 05:22:59;;;;;;;2.30;0.70;;;;;;;0.79;77.87;98969.40;25096;1315;3026970;-66
2022/01/02 05:25:29;;;;;;;0.40;0.30;;;;;;;1.18;77.15;98965.65;25097;1315;3027051;-66
2022/01/02 05:27:58;;;;;;;0.50;0.50;;;;;;;1.40;75.58;98970.35;25094;1315;3029549;-64
2022/01/02 05:30:27;;;;;;;0.90;0.30;;;;;;;1.44;75.23;98979.02;25095;1315;3049375;-70
2022/01/02 05:32:57;;;;;;;0.40;0.30;;;;;;;1.23;75.46;98993.63;25091;1313;3027661;-66
2022/01/02 05:35:26;;;;;;;1.10;0.40;;;;;;;1.01;76.27;99001.36;25077;1315;3025973;-67
2022/01/02 05:37:55;;;;;;;0.90;0.40;;;;;;;0.93;75.97;99004.86;25071;1313;3048023;-68
2022/01/02 05:40:30;;;;;;;0.70;0.40;;;;;;;0.86;75.54;99000.23;25094;1313;3027298;-66
2022/01/02 05:43:04;;;;;;;0.70;0.60;;;;;;;1.24;75.02;99011.73;25086;1315;3070647;-67
2022/01/02 05:45:33;;;;;;;0.60;0.50;;;;;;;1.63;72.92;99014.18;25083;1313;3051524;-66
2022/01/02 05:48:05;;;;;;;0.40;0.40;;;;;;;1.52;72.26;99021.75;25104;1313;3026648;-66
2022/01/02 05:50:35;;;;;;;1.10;0.80;;;;;;;1.30;72.95;99018.45;25089;1313;3026728;-64
2022/01/02 05:53:04;;;;;;;3.10;1.00;;;;;;;1.14;73.17;99038.07;25095;1315;3026067;-66
2022/01/02 05:55:34;;;;;;;52.00;14.10;;;;;;;1.08;73.41;99031.36;25120;1315;3026587;-68
2022/01/02 05:58:03;;;;;;;117.60;26.70;;;;;;;0.77;74.38;99061.02;25108;1313;3026304;-69
2022/01/02 06:00:33;;;;;;;116.60;26.40;;;;;;;0.68;74.78;99059.68;25084;1315;3058522;-64
2022/01/02 06:03:04;;;;;;;125.90;32.10;;;;;;;0.98;74.43;99053.88;25104;1315;3026992;-67
2022/01/02 06:05:33;;;;;;;138.90;36.10;;;;;;;1.48;72.51;99055.03;25126;1315;3026474;-63
2022/01/02 06:08:05;;;;;;;123.00;31.20;;;;;;;1.43;71.91;99054.30;25106;1313;3058433;-65
2022/01/02 06:10:36;;;;;;;118.60;31.30;;;;;;;1.27;72.20;99072.20;25061;1314;3026339;-66
2022/01/02 06:13:06;;;;;;;155.20;37.50;;;;;;;0.95;73.14;99079.31;25118;1313;3026139;-69
2022/01/02 06:15:35;;;;;;;156.70;34.90;;;;;;;0.75;74.32;99085.17;25087;1315;3027364;-64
2022/01/02 06:18:06;;;;;;;90.30;21.70;;;;;;;0.68;74.40;99088.83;25079;1315;3026139;-65
2022/01/02 06:20:35;;;;;;;57.30;15.00;;;;;;;0.46;74.79;99097.33;25116;1313;3026077;-64
2022/01/02 06:23:04;;;;;;;56.00;13.50;;;;;;;0.62;74.36;99099.14;25117;1315;3026255;-64
2022/01/02 06:25:49;;;;;;;37.60;8.70;;;;;;;1.03;73.02;99104.81;25077;1315;3071177;-64
2022/01/02 06:28:18;;;;;;;47.70;11.30;;;;;;;0.95;72.81;99119.48;25120;1313;3026229;-68
2022/01/02 06:30:48;;;;;;;33.60;8.30;;;;;;;0.81;73.14;99117.63;25093;1313;3053755;-64
2022/01/02 06:33:17;;;;;;;13.20;3.20;;;;;;;0.73;73.45;99120.93;25091;1315;3027015;-67
2022/01/02 06:35:46;;;;;;;2.90;1.20;;;;;;;0.53;73.77;99141.96;25124;1315;3026483;-67
2022/01/02 06:38:19;;;;;;;3.20;1.30;;;;;;;0.40;74.06;99131.09;25095;1315;3050137;-68
2022/01/02 06:40:50;;;;;;;1.50;0.70;;;;;;;0.32;73.48;99154.54;25073;1313;3067658;-66
2022/01/02 06:43:20;;;;;;;0.70;0.50;;;;;;;0.27;73.28;99162.22;25091;1315;3026633;-67
2022/01/02 06:45:49;;;;;;;1.90;0.90;;;;;;;0.83;71.87;99158.96;25100;1313;3026916;-69
2022/01/02 06:48:18;;;;;;;1.60;0.80;;;;;;;1.04;70.01;99181.88;25086;1314;3026425;-67
2022/01/02 06:50:47;;;;;;;2.70;1.00;;;;;;;0.98;69.25;99163.41;25079;1314;3046998;-64
2022/01/02 06:53:16;;;;;;;1.10;0.70;;;;;;;0.77;69.51;99175.32;25138;1313;3027079;-70
2022/01/02 06:55:45;;;;;;;1.30;0.90;;;;;;;0.60;69.80;99169.52;25078;1315;3068153;-66
2022/01/02 06:58:14;;;;;;;2.30;0.90;;;;;;;0.52;69.91;99166.98;25091;1314;3026167;-66
2022/01/02 07:00:44;;;;;;;3.40;1.00;;;;;;;0.46;69.85;99183.30;25105;1315;3052896;-67
2022/01/02 07:03:13;;;;;;;1.10;0.80;;;;;;;0.46;69.42;99166.44;25115;1315;3026721;-66
2022/01/02 07:05:42;;;;;;;1.50;0.90;;;;;;;0.37;70.10;99172.48;25152;1313;3052686;-68
2022/01/02 07:08:12;;;;;;;1.80;0.80;;;;;;;0.34;70.24;99173.95;25102;1315;3026980;-68
2022/01/02 07:10:42;;;;;;;1.50;0.70;;;;;;;0.37;70.57;99181.10;25109;1313;3027453;-67
2022/01/02 07:13:11;;;;;;;1.60;1.10;;;;;;;0.28;71.07;99188.23;25096;1315;3026711;-67
2022/01/02 07:15:39;;;;;;;1.50;1.10;;;;;;;0.24;71.38;99191.77;25084;1313;3051098;-67
2022/01/02 07:18:08;;;;;;;1.80;1.00;;;;;;;0.24;72.02;99189.00;25092;1313;3026295;-70
2022/01/02 07:20:37;;;;;;;1.70;0.90;;;;;;;1.01;70.08;99196.95;25084;1315;3053920;-66
2022/01/02 07:23:06;;;;;;;1.60;0.90;;;;;;;1.28;68.49;99204.88;25128;1315;3028757;-68
2022/01/02 07:25:35;;;;;;;4.30;1.40;;;;;;;1.30;67.90;99206.89;25088;1313;3051854;-67
2022/01/02 07:28:04;;;;;;;2.80;1.00;;;;;;;1.15;67.95;99213.34;25095;1313;3026237;-67
2022/01/02 07:30:34;;;;;;;6.40;1.30;;;;;;;0.96;68.12;99216.59;25095;1313;3058704;-67
2022/01/02 07:33:06;;;;;;;1.40;0.70;;;;;;;0.81;68.56;99218.67;25111;1313;3026121;-65
2022/01/02 07:35:34;;;;;;;0.80;0.50;;;;;;;0.52;68.55;99238.32;25104;1315;3029236;-68
2022/01/02 07:38:03;;;;;;;1.50;0.90;;;;;;;0.36;69.25;99232.48;25088;1313;3058241;-70
2022/01/02 07:40:32;;;;;;;4.50;0.90;;;;;;;0.30;68.95;99236.23;25082;1313;3026971;-69
2022/01/02 07:43:05;;;;;;;1.60;1.10;;;;;;;0.34;68.62;99230.46;25088;1318;3053936;-68
2022/01/02 07:45:34;;;;;;;1.20;0.80;;;;;;;0.40;68.45;99241.70;25134;1313;3026329;-68
2022/01/02 07:48:03;;;;;;;1.70;0.90;;;;;;;0.49;68.08;99245.27;25088;1313;3026492;-72
2022/01/02 07:50:32;;;;;;;5.50;0.80;;;;;;;0.34;67.02;99259.93;25120;1313;3051797;-68
2022/01/02 07:53:01;;;;;;;1.10;0.60;;;;;;;0.14;67.27;99265.54;25119;1313;3028290;-70
2022/01/02 07:55:30;;;;;;;0.70;0.40;;;;;;;0.12;66.80;99267.31;25114;1313;3054918;-66
2022/01/02 07:58:00;;;;;;;2.40;0.90;;;;;;;0.00;66.68;99263.40;25089;1313;3026575;-69
2022/01/02 08:00:29;;;;;;;1.80;1.00;;;;;;;0.17;66.77;99263.05;25099;1313;3048503;-67
2022/01/02 08:02:58;;;;;;;1.10;0.90;;;;;;;0.24;66.26;99271.34;25089;1313;3026880;-64
2022/01/02 08:05:26;;;;;;;3.10;1.20;;;;;;;0.18;66.16;99275.27;25112;1315;3071003;-70
2022/01/02 08:07:56;;;;;;;2.40;1.60;;;;;;;0.05;66.17;99292.60;25106;1313;3027895;-69
2022/01/02 08:10:27;;;;;;;2.70;1.40;;;;;;;-0.07;66.29;99285.59;25100;1313;3053917;-67
2022/01/02 08:12:56;;;;;;;1.30;0.60;;;;;;;-0.14;66.13;99298.98;25110;1313;3026527;-72
2022/01/02 08:15:24;;;;;;;1.50;0.90;;;;;;;-0.28;65.83;99311.13;25146;1313;3026193;-66
2022/01/02 08:17:53;;;;;;;1.90;0.80;;;;;;;-0.13;66.06;99299.30;25106;1313;3051151;-66
2022/01/02 08:20:23;;;;;;;1.20;0.70;;;;;;;-0.13;65.64;99321.02;25111;1315;3026484;-66
2022/01/02 08:22:52;;;;;;;2.00;0.80;;;;;;;-0.39;65.09;99317.20;25110;1313;3026357;-69
2022/01/02 08:25:22;;;;;;;1.50;1.00;;;;;;;-0.47;65.71;99325.42;25076;1315;3054288;-67
2022/01/02 08:27:51;;;;;;;1.70;0.80;;;;;;;-0.37;65.23;99315.25;25090;1313;3026176;-69
2022/01/02 08:30:20;;;;;;;0.80;0.60;;;;;;;-0.46;64.62;99337.80;25115;1315;3026509;-72
2022/01/02 08:32:49;;;;;;;1.10;0.60;;;;;;;-0.57;64.55;99349.52;25148;1315;3050427;-68
2022/01/02 08:35:18;;;;;;;1.20;0.70;;;;;;;-0.51;64.17;99348.39;25115;1316;3026990;-69
2022/01/02 08:37:48;;;;;;;2.00;0.60;;;;;;;-0.45;64.43;99346.04;25067;1317;3056352;-70
2022/01/02 08:40:17;;;;;;;2.00;1.10;;;;;;;-0.37;64.11;99346.75;25094;1313;3026917;-68
2022/01/02 08:42:47;;;;;;;2.30;1.10;;;;;;;-0.35;64.32;99347.41;25077;1315;3052964;-62
2022/01/02 08:45:16;;;;;;;0.80;0.70;;;;;;;-0.40;63.70;99352.49;25122;1313;3026405;-65
2022/01/02 08:47:45;;;;;;;1.80;0.70;;;;;;;-0.52;63.74;99353.55;25090;1315;3058582;-65
2022/01/02 08:50:14;;;;;;;2.90;0.80;;;;;;;-0.49;63.88;99350.93;25086;1313;3027036;-65
2022/01/02 08:52:43;;;;;;;1.40;0.70;;;;;;;-0.54;63.99;99357.03;25126;1315;3052880;-64
2022/01/02 08:55:12;;;;;;;1.20;0.60;;;;;;;-0.58;64.20;99356.76;25089;1315;3026600;-68
2022/01/02 08:57:42;;;;;;;2.00;1.00;;;;;;;-0.59;64.34;99359.88;25122;1315;3052612;-69
2022/01/02 09:00:12;;;;;;;1.60;1.00;;;;;;;-0.49;64.34;99360.91;25095;1315;3027764;-69
2022/01/02 09:02:41;;;;;;;1.60;0.90;;;;;;;-0.52;64.15;99363.55;25109;1313;3026723;-63
2022/01/02 09:05:10;;;;;;;1.20;0.80;;;;;;;-0.59;64.52;99360.38;25071;1315;3025964;-67
2022/01/02 09:07:40;;;;;;;2.00;0.90;;;;;;;-0.47;64.32;99361.73;25109;1316;3026019;-66
2022/01/02 09:10:21;;;;;;;1.10;0.60;;;;;;;-0.51;63.93;99367.81;25113;1313;3054984;-68
2022/01/02 09:13:10;;;;;;;1.70;0.70;;;;;;;-0.58;63.08;99365.02;25087;1315;3072114;-67
2022/01/02 09:15:41;;;;;;;2.50;0.90;;;;;;;-0.61;62.73;99351.65;25081;1318;3026718;-70
2022/01/02 09:18:10;;;;;;;0.90;0.70;;;;;;;-0.64;62.03;99361.50;25124;1313;3026270;-66
2022/01/02 09:20:40;;;;;;;1.20;0.40;;;;;;;-0.59;60.94;99357.80;25089;1315;3070588;-66
2022/01/02 09:23:10;;;;;;;3.10;0.60;;;;;;;-0.59;59.88;99374.66;25106;1316;3026519;-68
2022/01/02 09:25:39;;;;;;;6.40;0.70;;;;;;;-0.75;59.00;99366.15;25107;1313;3027083;-65
2022/01/02 09:28:08;;;;;;;0.80;0.60;;;;;;;-0.60;58.90;99378.98;25096;1315;3028546;-68
2022/01/02 09:30:37;;;;;;;1.10;0.50;;;;;;;-0.63;58.46;99382.14;25077;1313;3051229;-66
2022/01/02 09:33:08;;;;;;;0.50;0.40;;;;;;;-0.69;58.00;99388.41;25116;1313;3026456;-68
2022/01/02 09:35:38;;;;;;;1.60;0.70;;;;;;;-0.76;57.70;99385.07;25091;1313;3069593;-71
2022/01/02 09:38:08;;;;;;;0.90;0.40;;;;;;;-0.56;57.66;99389.23;25123;1313;3028316;-69
2022/01/02 09:40:37;;;;;;;4.00;0.60;;;;;;;-0.65;57.32;99385.26;25156;1313;3026937;-67
2022/01/02 09:43:06;;;;;;;0.90;0.60;;;;;;;-0.72;57.14;99389.16;25123;1313;3027354;-67
2022/01/02 09:45:38;;;;;;;0.50;0.40;;;;;;;-0.73;56.91;99404.30;25078;1318;3047875;-66
2022/01/02 09:48:08;;;;;;;1.30;0.70;;;;;;;-0.77;57.11;99406.61;25129;1313;3026390;-69
2022/01/02 09:50:38;;;;;;;1.10;0.50;;;;;;;-0.73;57.13;99402.58;25098;1313;3026524;-66
2022/01/02 09:53:08;;;;;;;1.00;0.50;;;;;;;-0.72;57.13;99418.23;25081;1318;3051027;-69
2022/01/02 09:55:37;;;;;;;0.90;0.40;;;;;;;-0.67;57.36;99419.35;25123;1313;3027263;-65
2022/01/02 09:58:11;;;;;;;1.00;0.60;;;;;;;-0.77;57.28;99427.08;25151;1318;3068634;-66
2022/01/02 10:00:44;;;;;;;0.80;0.60;;;;;;;-0.83;56.91;99434.38;25090;1315;3049673;-69
2022/01/02 10:03:13;;;;;;;1.50;0.60;;;;;;;-0.83;57.10;99434.55;25158;1313;3026606;-66
2022/01/02 10:05:59;;;;;;;1.90;0.60;;;;;;;-0.72;57.67;99429.41;25140;1315;3026687;-68
2022/01/02 10:08:30;;;;;;;1.40;0.60;;;;;;;-0.59;57.04;99436.61;25116;1313;3055587;-66
2022/01/02 10:11:07;;;;;;;1.80;0.60;;;;;;;-0.75;56.73;99430.83;25110;1315;3049624;-70
2022/01/02 10:13:41;;;;;;;1.60;1.00;;;;;;;-0.90;56.47;99441.54;25133;1313;3056045;-63
2022/01/02 10:16:28;;;;;;;2.10;0.90;;;;;;;-0.82;56.49;99452.77;25092;1313;3054289;-66
2022/01/02 10:18:59;;;;;;;1.10;0.60;;;;;;;-0.86;56.51;99451.63;25115;1315;3071608;-66
2022/01/02 10:21:29;;;;;;;2.00;0.90;;;;;;;-0.85;55.65;99458.48;25091;1313;3027332;-64
2022/01/02 10:24:16;;;;;;;2.30;0.90;;;;;;;-0.82;55.59;99459.14;25093;1315;3026477;-68
2022/01/02 10:27:04;;;;;;;1.50;1.10;;;;;;;-0.85;54.31;99460.89;25116;1313;3054022;-65
2022/01/02 10:29:55;;;;;;;3.30;0.80;;;;;;;-1.07;53.69;99462.56;25135;1315;3055792;-68
2022/01/02 10:32:35;;;;;;;2.40;0.90;;;;;;;-1.07;53.98;99458.62;25143;1315;3052126;-68
2022/01/02 10:35:08;;;;;;;2.10;1.10;;;;;;;-0.97;54.01;99450.74;25097;1315;3052801;-68
2022/01/02 10:37:37;;;;;;;2.90;1.00;;;;;;;-0.99;53.21;99457.31;25129;1315;3029212;-64
2022/01/02 10:40:30;;;;;;;3.10;1.30;;;;;;;-0.79;53.02;99454.11;25097;1315;3026786;-66
2022/01/02 10:43:00;;;;;;;3.10;0.90;;;;;;;-0.75;52.66;99451.48;25143;1315;3051892;-68
2022/01/02 10:45:50;;;;;;;1.20;1.00;;;;;;;-0.81;52.72;99465.13;25125;1315;3026525;-68
2022/01/02 10:48:39;;;;;;;1.30;0.80;;;;;;;-1.00;52.40;99463.67;25191;1315;3052285;-67
2022/01/02 10:51:09;;;;;;;1.80;0.80;;;;;;;-1.34;52.59;99471.85;25157;1315;3056006;-63
2022/01/02 10:53:51;;;;;;;4.60;1.00;;;;;;;-1.45;52.73;99482.10;25095;1315;3026465;-65
2022/01/02 10:56:21;;;;;;;1.90;0.90;;;;;;;-1.43;53.54;99483.13;25139;1315;3055991;-68
2022/01/02 10:58:50;;;;;;;1.90;1.20;;;;;;;-1.49;53.72;99468.08;25151;1315;3027033;-67
2022/01/02 11:01:20;;;;;;;2.20;1.00;;;;;;;-1.45;54.13;99486.08;25121;1315;3026258;-70
2022/01/02 11:03:49;;;;;;;1.70;0.90;;;;;;;-1.50;54.10;99484.94;25116;1315;3055404;-68
2022/01/02 11:06:24;;;;;;;2.00;1.00;;;;;;;-1.42;54.08;99486.20;25087;1315;3026983;-64
2022/01/02 11:08:55;;;;;;;1.10;0.90;;;;;;;-1.42;53.93;99497.71;25092;1315;3051697;-69
2022/01/02 11:11:24;;;;;;;2.10;1.20;;;;;;;-1.53;53.28;99515.02;25136;1314;3026478;-65
2022/01/02 11:13:56;;;;;;;1.10;0.80;;;;;;;-1.63;53.04;99518.04;25090;1315;3026966;-69
2022/01/02 11:16:25;;;;;;;1.30;0.80;;;;;;;-1.76;53.26;99527.78;25094;1315;3028069;-64
2022/01/02 11:18:58;;;;;;;1.40;0.90;;;;;;;-1.79;53.60;99533.14;25114;1315;3026939;-68
2022/01/02 11:21:27;;;;;;;2.90;1.10;;;;;;;-1.83;53.87;99524.25;25124;1315;3026336;-68
2022/01/02 11:24:27;;;;;;;1.50;1.30;;;;;;;-1.69;53.70;99518.09;25057;1315;3070615;-65
2022/01/02 11:27:28;;;;;;;1.80;1.10;;;;;;;-1.61;53.33;99520.59;25114;1315;3049382;-68
2022/01/02 11:29:57;;;;;;;1.50;0.90;;;;;;;-1.73;53.63;99533.25;25084;1315;3051575;-68
2022/01/02 11:32:26;;;;;;;2.10;1.20;;;;;;;-1.71;54.08;99531.17;25068;1315;3028782;-67
2022/01/02 11:34:56;;;;;;;1.40;0.70;;;;;;;-1.54;54.01;99533.58;25114;1318;3048294;-65
2022/01/02 11:37:26;;;;;;;2.10;1.10;;;;;;;-1.53;53.74;99538.04;25096;1315;3026246;-67
2022/01/02 11:40:04;;;;;;;3.00;1.30;;;;;;;-1.37;53.65;99542.34;25109;1315;3071478;-67
2022/01/02 11:42:34;;;;;;;2.40;1.20;;;;;;;-1.36;53.46;99538.20;25107;1315;3051529;-68
2022/01/02 11:45:07;;;;;;;1.70;1.10;;;;;;;-1.40;53.08;99537.23;25120;1315;3028828;-66
2022/01/02 11:47:40;;;;;;;1.80;1.20;;;;;;;-1.58;52.67;99552.52;25129;1315;3069309;-64